Spirit of New Zealand — ZMSV — position and weather

sailwx.info

Track history (hours):
 
Tides and Currents Weather Stations Pressure Air Temp Water Temp Dewpoint Dewpoint Depression Visibility Wind Speed Wind Dir Waves Ship Positions

Spirit of New Zealand

Last reported at 2017-Feb-24 16:31 UTC. Time now 2017-Feb-24 17:20 UTC.
Position S 36°27' E 174°52'.

Length 45 m; draft 4.1 m.

Type: Passenger vessel. MMSI: 512201000.

Date/timePositionNaut miles runAvg speedWind from/ knotsBaromVisibWave heightAir tempDewpointWater temp
2017-Feb-24 16:31S 36°27' E 174°52'0 0.0
2017-Feb-24 15:31S 36°27' E 174°52'0 0.0
2017-Feb-24 14:31S 36°27' E 174°52'0 0.0
2017-Feb-24 13:31S 36°27' E 174°52'0 0.0
2017-Feb-24 12:31S 36°27' E 174°52'0 0.0
2017-Feb-24 11:25S 36°27' E 174°52'0 0.0
2017-Feb-24 10:31S 36°27' E 174°52'0 0.0
2017-Feb-24 09:19S 36°27' E 174°52'0 0.0
2017-Feb-24 08:31S 36°27' E 174°52'0 0.0
2017-Feb-24 07:31S 36°27' E 174°52'0 0.0
2017-Feb-24 06:25S 36°27' E 174°52'0 0.0
2017-Feb-24 05:25S 36°27' E 174°52'3 3.3
2017-Feb-24 04:33S 36°30' E 174°51'5 4.5
2017-Feb-24 03:33S 36°33' E 174°55'6 5.6
2017-Feb-24 02:33S 36°30' E 174°50'4 3.8
2017-Feb-24 01:26S 36°25' E 174°49'0 0.1
2017-Feb-24 00:32S 36°25' E 174°49'0 0.0
2017-Feb-23 23:32S 36°25' E 174°49'0 0.0
2017-Feb-23 19:32S 36°25' E 174°49'0 0.0
2017-Feb-23 18:32S 36°25' E 174°49'0 0.0
2017-Feb-23 17:32S 36°25' E 174°49'0 0.0
2017-Feb-23 16:26S 36°25' E 174°49'0 0.0
2017-Feb-23 15:32S 36°25' E 174°49'0 0.0
2017-Feb-23 12:26S 36°25' E 174°49'0 0.0
2017-Feb-23 11:32S 36°25' E 174°49'0 0.0
2017-Feb-23 10:32S 36°25' E 174°49'0 0.0
2017-Feb-23 09:32S 36°25' E 174°49'0 0.0
2017-Feb-23 08:32S 36°25' E 174°49'0 0.0
2017-Feb-23 07:32S 36°25' E 174°49'0 0.0
2017-Feb-23 06:20S 36°25' E 174°49'0 0.0
2017-Feb-23 05:32S 36°25' E 174°49'0 0.0
2017-Feb-23 04:32S 36°25' E 174°49'0 0.0
2017-Feb-23 03:32S 36°25' E 174°49'1 0.4
2017-Feb-23 01:33S 36°25' E 174°49'3 2.4
2017-Feb-23 00:22S 36°23' E 174°52'5 5.9
2017-Feb-22 23:32S 36°21' E 174°57'  
2017-Feb-17 04:31S 36°50' E 175°01'5 4.2
2017-Feb-17 03:17S 36°46' E 174°57'10 5.0
2017-Feb-17 01:20S 36°50' E 174°46'0 0.2
2017-Feb-16 23:29S 36°50' E 174°46'0 0.1
2017-Feb-16 21:30S 36°51' E 174°46'0 0.0
2017-Feb-16 10:30S 36°51' E 174°46'0 0.0
2017-Feb-15 18:05S 36°51' E 174°46'1 2.1
2017-Feb-15 17:33S 36°50' E 174°47'1 0.7
2017-Feb-15 16:16S 36°50' E 174°48'0 0.0
2017-Feb-15 15:28S 36°50' E 174°48'0 0.0
2017-Feb-15 14:28S 36°50' E 174°48'0 0.0
2017-Feb-15 13:28S 36°51' E 174°48'0 0.0
2017-Feb-15 12:28S 36°50' E 174°48'0 0.0
2017-Feb-15 06:16S 36°50' E 174°48'0 0.1
2017-Feb-15 05:22S 36°50' E 174°48'0 0.1
2017-Feb-15 04:20S 36°51' E 174°48'2 2.2
2017-Feb-15 03:33S 36°50' E 174°46'3 3.5
2017-Feb-15 02:33S 36°47' E 174°48'5 5.5
2017-Feb-15 01:33S 36°44' E 174°54'0 0.0
2017-Feb-15 00:28S 36°44' E 174°54'4 4.2
2017-Feb-14 23:33S 36°41' E 174°56'3 3.2
2017-Feb-14 22:33S 36°38' E 174°58'4 3.7
2017-Feb-14 21:33S 36°37' E 174°53'7 7.3
2017-Feb-14 20:33S 36°33' E 174°46'3 2.8
2017-Feb-14 19:29S 36°30' E 174°44'0 0.0
2017-Feb-14 17:29S 36°30' E 174°44'  
Track history (hours):
 
Tides and Currents Weather Stations Pressure Air Temp Water Temp Dewpoint Dewpoint Depression Visibility Wind Speed Wind Dir Waves Ship Positions

Spirit of New Zealand

Last reported at 2017-Feb-24 16:31 UTC. Time now 2017-Feb-24 17:20 UTC.
Position S 36°27' E 174°52'.

Length 45 m; draft 4.1 m.

Type: Passenger vessel. MMSI: 512201000.

Date/timePositionNaut miles runAvg speedWind from/ knotsBaromVisibWave heightAir tempDewpointWater temp
2017-Feb-24 16:31S 36°27' E 174°52'0 0.0
2017-Feb-24 15:31S 36°27' E 174°52'0 0.0
2017-Feb-24 14:31S 36°27' E 174°52'0 0.0
2017-Feb-24 13:31S 36°27' E 174°52'0 0.0
2017-Feb-24 12:31S 36°27' E 174°52'0 0.0
2017-Feb-24 11:25S 36°27' E 174°52'0 0.0
2017-Feb-24 10:31S 36°27' E 174°52'0 0.0
2017-Feb-24 09:19S 36°27' E 174°52'0 0.0
2017-Feb-24 08:31S 36°27' E 174°52'0 0.0
2017-Feb-24 07:31S 36°27' E 174°52'0 0.0
2017-Feb-24 06:25S 36°27' E 174°52'0 0.0
2017-Feb-24 05:25S 36°27' E 174°52'3 3.3
2017-Feb-24 04:33S 36°30' E 174°51'5 4.5
2017-Feb-24 03:33S 36°33' E 174°55'6 5.6
2017-Feb-24 02:33S 36°30' E 174°50'4 3.8
2017-Feb-24 01:26S 36°25' E 174°49'0 0.1
2017-Feb-24 00:32S 36°25' E 174°49'0 0.0
2017-Feb-23 23:32S 36°25' E 174°49'0 0.0
2017-Feb-23 19:32S 36°25' E 174°49'0 0.0
2017-Feb-23 18:32S 36°25' E 174°49'0 0.0
2017-Feb-23 17:32S 36°25' E 174°49'0 0.0
2017-Feb-23 16:26S 36°25' E 174°49'0 0.0
2017-Feb-23 15:32S 36°25' E 174°49'0 0.0
2017-Feb-23 12:26S 36°25' E 174°49'0 0.0
2017-Feb-23 11:32S 36°25' E 174°49'0 0.0
2017-Feb-23 10:32S 36°25' E 174°49'0 0.0
2017-Feb-23 09:32S 36°25' E 174°49'0 0.0
2017-Feb-23 08:32S 36°25' E 174°49'0 0.0
2017-Feb-23 07:32S 36°25' E 174°49'0 0.0
2017-Feb-23 06:20S 36°25' E 174°49'0 0.0
2017-Feb-23 05:32S 36°25' E 174°49'0 0.0
2017-Feb-23 04:32S 36°25' E 174°49'0 0.0
2017-Feb-23 03:32S 36°25' E 174°49'1 0.4
2017-Feb-23 01:33S 36°25' E 174°49'3 2.4
2017-Feb-23 00:22S 36°23' E 174°52'5 5.9
2017-Feb-22 23:32S 36°21' E 174°57'  
2017-Feb-17 04:31S 36°50' E 175°01'5 4.2
2017-Feb-17 03:17S 36°46' E 174°57'10 5.0
2017-Feb-17 01:20S 36°50' E 174°46'0 0.2
2017-Feb-16 23:29S 36°50' E 174°46'0 0.1
2017-Feb-16 21:30S 36°51' E 174°46'0 0.0
2017-Feb-16 10:30S 36°51' E 174°46'0 0.0
2017-Feb-15 18:05S 36°51' E 174°46'1 2.1
2017-Feb-15 17:33S 36°50' E 174°47'1 0.7
2017-Feb-15 16:16S 36°50' E 174°48'0 0.0
2017-Feb-15 15:28S 36°50' E 174°48'0 0.0
2017-Feb-15 14:28S 36°50' E 174°48'0 0.0
2017-Feb-15 13:28S 36°51' E 174°48'0 0.0
2017-Feb-15 12:28S 36°50' E 174°48'0 0.0
2017-Feb-15 06:16S 36°50' E 174°48'0 0.1
2017-Feb-15 05:22S 36°50' E 174°48'0 0.1
2017-Feb-15 04:20S 36°51' E 174°48'2 2.2
2017-Feb-15 03:33S 36°50' E 174°46'3 3.5
2017-Feb-15 02:33S 36°47' E 174°48'5 5.5
2017-Feb-15 01:33S 36°44' E 174°54'0 0.0
2017-Feb-15 00:28S 36°44' E 174°54'4 4.2
2017-Feb-14 23:33S 36°41' E 174°56'3 3.2
2017-Feb-14 22:33S 36°38' E 174°58'4 3.7
2017-Feb-14 21:33S 36°37' E 174°53'7 7.3
2017-Feb-14 20:33S 36°33' E 174°46'3 2.8
2017-Feb-14 19:29S 36°30' E 174°44'0 0.0
2017-Feb-14 17:29S 36°30' E 174°44'  

Dump ship's entire track history